createdAt,value
2023-01-09T00:01:52.161Z,8.50
2023-01-09T00:04:20.992Z,9.00
2023-01-09T00:06:54.658Z,9.10
2023-01-09T00:09:23.175Z,9.10
2023-01-09T00:11:51.849Z,8.53
2023-01-09T00:14:22.771Z,8.63
2023-01-09T00:16:51.275Z,8.80
2023-01-09T00:19:19.296Z,9.03
2023-01-09T00:21:47.326Z,9.37
2023-01-09T00:24:16.447Z,9.70
2023-01-09T00:26:46.300Z,8.50
2023-01-09T00:29:14.334Z,9.90
2023-01-09T00:31:43.671Z,8.53
2023-01-09T00:34:11.548Z,9.60
2023-01-09T00:36:39.470Z,9.70
2023-01-09T00:39:07.572Z,9.97
2023-01-09T00:41:38.652Z,8.97
2023-01-09T00:44:11.189Z,9.93
2023-01-09T00:46:44.135Z,10.13
2023-01-09T00:49:15.151Z,11.07
2023-01-09T00:51:43.804Z,10.40
2023-01-09T00:54:14.397Z,10.10
2023-01-09T00:56:42.337Z,10.37
2023-01-09T00:59:10.643Z,11.10
2023-01-09T01:01:38.704Z,11.70
2023-01-09T01:04:20.622Z,11.50
2023-01-09T01:07:08.014Z,12.90
2023-01-09T01:09:36.013Z,13.40
2023-01-09T01:12:07.102Z,13.17
2023-01-09T01:14:36.512Z,13.67
2023-01-09T01:17:05.057Z,14.53
2023-01-09T01:19:34.037Z,14.77
2023-01-09T01:22:03.516Z,16.10
2023-01-09T01:24:31.506Z,15.37
2023-01-09T01:26:59.383Z,14.27
2023-01-09T01:29:28.154Z,14.20
2023-01-09T01:31:56.509Z,13.87
2023-01-09T01:34:24.463Z,14.33
2023-01-09T01:36:52.340Z,13.47
2023-01-09T01:39:21.716Z,13.13
2023-01-09T01:41:49.710Z,13.43
2023-01-09T01:44:54.768Z,12.90
2023-01-09T01:47:24.619Z,13.50
2023-01-09T01:49:56.268Z,13.57
2023-01-09T01:52:26.171Z,14.10
2023-01-09T01:54:56.421Z,13.50
2023-01-09T01:57:25.129Z,13.47
2023-01-09T01:59:58.641Z,13.90
2023-01-09T02:02:35.324Z,13.13
2023-01-09T02:05:04.255Z,13.80
2023-01-09T02:07:32.351Z,13.33
2023-01-09T02:10:01.706Z,13.70
2023-01-09T02:12:29.986Z,13.60
2023-01-09T02:15:03.756Z,12.40
2023-01-09T02:18:08.159Z,11.53
2023-01-09T02:20:49.031Z,12.33
2023-01-09T02:23:42.784Z,11.70
2023-01-09T02:26:42.585Z,11.27
2023-01-09T02:29:45.048Z,9.63
2023-01-09T02:32:23.316Z,9.27
2023-01-09T02:35:00.950Z,9.47
2023-01-09T02:37:39.571Z,9.17
2023-01-09T02:40:17.164Z,6.57
2023-01-09T02:42:46.709Z,6.17
2023-01-09T02:45:14.697Z,5.53
2023-01-09T02:47:45.569Z,4.27
2023-01-09T02:50:18.112Z,5.07
2023-01-09T02:53:20.422Z,5.00
2023-01-09T02:56:03.136Z,2.93
2023-01-09T02:58:52.887Z,2.80
2023-01-09T03:01:28.266Z,3.47
2023-01-09T03:04:03.843Z,2.30
2023-01-09T03:06:40.230Z,2.67
2023-01-09T03:09:13.310Z,2.00
2023-01-09T03:11:45.146Z,1.97
2023-01-09T03:14:17.159Z,1.07
2023-01-09T03:16:49.512Z,1.40
2023-01-09T03:19:23.730Z,1.60
2023-01-09T03:21:52.135Z,1.50
2023-01-09T03:24:20.136Z,1.40
2023-01-09T03:26:48.773Z,1.20
2023-01-09T03:29:16.709Z,1.33
2023-01-09T03:31:45.013Z,1.60
2023-01-09T03:34:12.936Z,1.57
2023-01-09T03:36:42.377Z,1.37
2023-01-09T03:39:10.324Z,0.80
2023-01-09T03:41:38.155Z,1.30
2023-01-09T03:44:06.086Z,1.00
2023-01-09T03:46:34.140Z,1.40
2023-01-09T03:49:02.041Z,0.90
2023-01-09T03:51:29.976Z,1.10
2023-01-09T03:53:59.214Z,1.57
2023-01-09T03:56:27.508Z,1.63
2023-01-09T03:58:56.183Z,1.70
2023-01-09T04:01:24.265Z,1.30
2023-01-09T04:03:52.283Z,1.30
2023-01-09T04:06:20.330Z,0.80
2023-01-09T04:08:48.318Z,1.00
2023-01-09T04:11:18.153Z,0.80
2023-01-09T04:13:46.056Z,0.80
2023-01-09T04:16:14.046Z,0.70
2023-01-09T04:18:44.077Z,0.80
2023-01-09T04:21:12.047Z,0.93
2023-01-09T04:23:39.949Z,0.80
2023-01-09T04:26:07.902Z,1.20
2023-01-09T04:28:37.192Z,1.90
2023-01-09T04:31:05.208Z,3.87
2023-01-09T04:33:33.130Z,1.30
2023-01-09T04:36:01.146Z,0.80
2023-01-09T04:38:29.124Z,1.30
2023-01-09T04:40:57.015Z,0.97
2023-01-09T04:43:24.881Z,1.10
2023-01-09T04:45:54.249Z,0.90
2023-01-09T04:48:22.214Z,1.10
2023-01-09T04:50:50.228Z,1.10
2023-01-09T04:53:19.869Z,1.10
2023-01-09T04:55:47.858Z,1.13
2023-01-09T04:58:15.844Z,0.83
2023-01-09T05:00:43.915Z,1.07
2023-01-09T05:03:13.302Z,1.20
2023-01-09T05:05:41.247Z,1.23
2023-01-09T05:08:09.232Z,1.23
2023-01-09T05:10:40.337Z,1.80
2023-01-09T05:13:08.359Z,2.20
2023-01-09T05:15:39.165Z,1.90
2023-01-09T05:18:09.569Z,2.20
2023-01-09T05:20:38.992Z,2.03
2023-01-09T05:23:07.002Z,1.87
2023-01-09T05:25:34.982Z,2.50
2023-01-09T05:28:04.944Z,2.07
2023-01-09T05:30:34.645Z,2.07
2023-01-09T05:33:02.679Z,2.20
2023-01-09T05:35:30.805Z,1.80
2023-01-09T05:38:00.209Z,1.50
2023-01-09T05:40:32.309Z,1.20
2023-01-09T05:43:06.564Z,1.37
2023-01-09T05:45:34.587Z,1.20
2023-01-09T05:48:02.648Z,1.30
2023-01-09T05:50:32.592Z,1.33
2023-01-09T05:53:01.858Z,1.40
2023-01-09T05:55:29.816Z,1.37
2023-01-09T05:57:57.668Z,1.63
2023-01-09T06:00:25.711Z,1.17
2023-01-09T06:02:54.050Z,1.80
2023-01-09T06:05:22.106Z,1.60
2023-01-09T06:07:50.132Z,1.90
2023-01-09T06:10:19.699Z,1.53
2023-01-09T06:12:49.110Z,2.30
2023-01-09T06:15:20.495Z,2.50
2023-01-09T06:17:48.853Z,2.03
2023-01-09T06:20:17.025Z,1.90
2023-01-09T06:22:47.652Z,1.60
2023-01-09T06:25:15.485Z,1.50
2023-01-09T06:27:44.861Z,1.30
2023-01-09T06:30:13.439Z,1.47
2023-01-09T06:32:41.291Z,1.43
2023-01-09T06:35:10.132Z,1.47
2023-01-09T06:37:38.132Z,1.47
2023-01-09T06:40:07.192Z,1.47
2023-01-09T06:42:35.128Z,1.30
2023-01-09T06:45:07.166Z,1.10
2023-01-09T06:47:35.146Z,1.30
2023-01-09T06:50:03.009Z,1.17
2023-01-09T06:52:31.188Z,1.47
2023-01-09T06:54:59.170Z,1.40
2023-01-09T06:57:27.564Z,1.50
2023-01-09T06:59:55.518Z,1.80
2023-01-09T07:02:25.012Z,1.30
2023-01-09T07:04:52.947Z,1.80
2023-01-09T07:07:22.321Z,1.60
2023-01-09T07:09:50.467Z,1.83
2023-01-09T07:12:18.587Z,1.80
2023-01-09T07:14:46.860Z,1.60
2023-01-09T07:17:14.961Z,1.70
2023-01-09T07:19:44.176Z,1.87
2023-01-09T07:22:12.207Z,1.70
2023-01-09T07:24:44.310Z,1.70
2023-01-09T07:27:12.388Z,2.03
2023-01-09T07:29:40.371Z,2.20
2023-01-09T07:32:09.968Z,2.00
2023-01-09T07:34:37.942Z,1.93
2023-01-09T07:37:07.300Z,1.43
2023-01-09T07:39:35.367Z,2.10
2023-01-09T07:42:03.313Z,1.97
2023-01-09T07:44:31.568Z,1.80
2023-01-09T07:46:59.492Z,1.50
2023-01-09T07:49:28.788Z,1.53
2023-01-09T07:51:56.930Z,1.70
2023-01-09T07:54:26.230Z,1.37
2023-01-09T07:56:54.141Z,1.60
2023-01-09T07:59:22.135Z,1.60
2023-01-09T08:01:50.274Z,1.23
2023-01-09T08:04:18.374Z,1.30
2023-01-09T08:06:47.973Z,1.30
2023-01-09T08:09:15.975Z,1.60
2023-01-09T08:11:45.314Z,1.53
2023-01-09T08:14:13.664Z,1.17
2023-01-09T08:16:43.630Z,1.27
2023-01-09T08:19:12.220Z,1.40
2023-01-09T08:21:40.955Z,2.07
2023-01-09T08:24:10.466Z,1.63
2023-01-09T08:26:38.381Z,1.30
2023-01-09T08:29:07.649Z,1.10
2023-01-09T08:31:35.876Z,1.30
2023-01-09T08:34:04.323Z,1.23
2023-01-09T08:36:32.381Z,1.27
2023-01-09T08:39:00.423Z,1.83
2023-01-09T08:41:45.796Z,1.10
2023-01-09T08:44:32.317Z,1.17
2023-01-09T08:47:09.455Z,1.47
2023-01-09T08:49:39.595Z,1.20
2023-01-09T08:52:08.448Z,1.13
2023-01-09T08:54:37.027Z,1.10
2023-01-09T08:57:05.122Z,1.13
2023-01-09T08:59:34.845Z,1.03
2023-01-09T09:02:02.864Z,1.20
2023-01-09T09:04:30.927Z,0.80
2023-01-09T09:06:58.825Z,0.93
2023-01-09T09:09:26.834Z,0.93
2023-01-09T09:11:54.749Z,1.33
2023-01-09T09:14:40.511Z,1.20
2023-01-09T09:17:09.932Z,1.13
2023-01-09T09:19:39.501Z,1.30
2023-01-09T09:22:07.596Z,1.20
2023-01-09T09:24:35.702Z,1.30
2023-01-09T09:27:04.762Z,1.00
2023-01-09T09:29:34.992Z,1.20
2023-01-09T09:32:06.204Z,1.13
2023-01-09T09:34:37.595Z,0.60
2023-01-09T09:37:05.793Z,1.00
2023-01-09T09:39:33.951Z,1.03
2023-01-09T09:42:35.723Z,1.10
2023-01-09T09:45:15.412Z,1.30
2023-01-09T09:47:51.988Z,0.97
2023-01-09T09:50:47.611Z,1.00
2023-01-09T09:53:21.821Z,1.00
2023-01-09T09:55:51.044Z,1.20
2023-01-09T09:58:29.758Z,0.90
2023-01-09T10:01:00.748Z,0.93
2023-01-09T10:03:35.753Z,0.83
2023-01-09T10:06:09.993Z,1.23
2023-01-09T10:08:44.697Z,1.10
2023-01-09T10:11:20.070Z,1.00
2023-01-09T10:14:08.408Z,1.17
2023-01-09T10:16:52.696Z,0.97
2023-01-09T10:19:38.291Z,1.00
2023-01-09T10:22:17.520Z,0.70
2023-01-09T10:24:59.232Z,1.00
2023-01-09T10:27:37.804Z,1.00
2023-01-09T10:30:34.007Z,1.07
2023-01-09T10:33:13.951Z,1.20
2023-01-09T10:35:55.749Z,1.03
2023-01-09T10:38:30.327Z,1.70
2023-01-09T10:41:12.892Z,1.30
2023-01-09T10:43:46.771Z,1.10
2023-01-09T10:46:20.698Z,1.03
2023-01-09T10:48:56.134Z,1.37
2023-01-09T10:51:35.387Z,1.50
2023-01-09T10:54:07.583Z,1.13
2023-01-09T10:56:51.960Z,0.90
2023-01-09T10:59:20.037Z,1.07
2023-01-09T11:01:48.057Z,0.93
2023-01-09T11:04:24.638Z,1.00
2023-01-09T11:06:59.572Z,1.47
2023-01-09T11:09:28.896Z,1.10
2023-01-09T11:11:56.792Z,1.50
2023-01-09T11:14:31.616Z,1.20
2023-01-09T11:17:05.579Z,1.50
2023-01-09T11:19:33.957Z,2.73
2023-01-09T11:22:09.625Z,2.17
2023-01-09T11:24:38.978Z,2.50
2023-01-09T11:27:31.163Z,3.83
2023-01-09T11:30:30.935Z,1.37
2023-01-09T11:32:59.773Z,1.50
2023-01-09T11:35:34.212Z,1.57
2023-01-09T11:38:09.510Z,1.60
2023-01-09T11:40:48.068Z,2.13
2023-01-09T11:43:20.652Z,2.53
2023-01-09T11:46:00.460Z,1.60
2023-01-09T11:48:40.950Z,1.87
2023-01-09T11:51:21.145Z,2.97
2023-01-09T11:54:12.205Z,1.90
2023-01-09T11:56:42.080Z,2.40
2023-01-09T11:59:12.759Z,1.90
2023-01-09T12:02:12.811Z,3.53
2023-01-09T12:04:47.728Z,1.40
2023-01-09T12:07:31.536Z,2.07
2023-01-09T12:10:12.866Z,2.80
2023-01-09T12:12:53.261Z,1.60
2023-01-09T12:15:28.188Z,2.00
2023-01-09T12:18:25.551Z,2.70
2023-01-09T12:21:20.076Z,1.37
2023-01-09T12:24:01.708Z,2.00
2023-01-09T12:26:35.844Z,1.73
2023-01-09T12:29:24.714Z,1.93
2023-01-09T12:32:05.698Z,1.87
2023-01-09T12:34:56.092Z,1.50
2023-01-09T12:37:48.786Z,1.57
2023-01-09T12:40:32.057Z,1.93
2023-01-09T12:43:21.847Z,1.70
2023-01-09T12:46:16.602Z,1.90
2023-01-09T12:49:23.391Z,1.90
2023-01-09T12:51:56.394Z,1.50
2023-01-09T12:54:37.335Z,2.60
2023-01-09T12:57:12.424Z,1.90
2023-01-09T12:59:44.872Z,1.60
2023-01-09T13:02:32.374Z,1.30
2023-01-09T13:05:10.893Z,2.43
2023-01-09T13:07:44.249Z,1.73
2023-01-09T13:10:23.465Z,1.63
2023-01-09T13:12:53.145Z,1.10
2023-01-09T13:15:30.213Z,1.40
2023-01-09T13:18:08.397Z,1.20
2023-01-09T13:20:45.998Z,1.87
2023-01-09T13:23:21.554Z,1.60
2023-01-09T13:25:53.145Z,1.60
2023-01-09T13:28:28.577Z,1.50
2023-01-09T13:31:35.238Z,0.80
2023-01-09T13:34:14.183Z,1.10
2023-01-09T13:36:49.724Z,0.90
2023-01-09T13:39:28.487Z,0.80
2023-01-09T13:42:17.825Z,0.70
2023-01-09T13:44:46.769Z,0.70
2023-01-09T13:47:20.892Z,0.60
2023-01-09T13:53:39.142Z,0.70
2023-01-09T13:56:08.233Z,0.87
2023-01-09T13:59:05.989Z,0.93
2023-01-09T14:01:47.674Z,0.90
2023-01-09T14:04:45.107Z,0.97
2023-01-09T14:07:22.239Z,0.80
2023-01-09T14:09:55.454Z,0.83
2023-01-09T14:12:24.174Z,0.93
2023-01-09T14:14:54.850Z,0.73
2023-01-09T14:17:31.181Z,0.60
2023-01-09T14:20:03.665Z,0.70
2023-01-09T14:22:42.423Z,0.70
2023-01-09T14:25:26.645Z,0.70
2023-01-09T14:28:19.603Z,0.70
2023-01-09T14:31:11.960Z,0.70
2023-01-09T14:33:40.323Z,0.80
2023-01-09T14:36:16.478Z,0.90
2023-01-09T14:38:47.491Z,1.00
2023-01-09T14:41:39.686Z,1.20
2023-01-09T14:44:18.092Z,0.90
2023-01-09T14:46:46.857Z,1.20
2023-01-09T14:49:22.270Z,1.00
2023-01-09T14:51:51.715Z,0.90
2023-01-09T14:54:29.307Z,1.10
2023-01-09T14:56:58.967Z,1.10
2023-01-09T14:59:31.714Z,0.90
2023-01-09T15:02:00.226Z,0.97
2023-01-09T15:04:34.880Z,0.80
2023-01-09T15:07:07.290Z,0.80
2023-01-09T15:09:46.257Z,0.67
2023-01-09T15:12:20.396Z,0.93
2023-01-09T15:14:53.313Z,1.83
2023-01-09T15:17:23.669Z,1.13
2023-01-09T15:19:52.288Z,0.80
2023-01-09T15:22:26.292Z,1.00
2023-01-09T15:24:54.367Z,1.10
2023-01-09T15:27:23.732Z,0.93
2023-01-09T15:29:51.865Z,1.00
2023-01-09T15:32:25.004Z,1.20
2023-01-09T15:34:55.035Z,1.50
2023-01-09T15:37:29.545Z,1.40
2023-01-09T15:39:58.661Z,1.63
2023-01-09T15:42:48.484Z,2.50
2023-01-09T15:45:25.365Z,1.30
2023-01-09T15:47:53.805Z,1.20
2023-01-09T15:52:54.063Z,1.20
2023-01-09T15:55:35.346Z,0.97
2023-01-09T15:58:05.954Z,1.50
2023-01-09T16:00:43.918Z,0.90
2023-01-09T16:03:22.406Z,1.10
2023-01-09T16:05:57.949Z,1.63
2023-01-09T16:08:30.406Z,1.67
2023-01-09T16:11:02.411Z,1.40
2023-01-09T16:13:35.213Z,1.47
2023-01-09T16:16:04.241Z,1.77
2023-01-09T16:18:35.019Z,1.30
2023-01-09T16:21:22.178Z,1.20
2023-01-09T16:23:55.706Z,1.10
2023-01-09T16:26:25.700Z,1.50
2023-01-09T16:28:55.434Z,1.40
2023-01-09T16:31:29.330Z,1.40
2023-01-09T16:34:06.872Z,1.20
2023-01-09T16:36:35.949Z,1.23
2023-01-09T16:39:05.092Z,1.93
2023-01-09T16:41:50.577Z,1.53
2023-01-09T16:44:20.009Z,1.70
2023-01-09T16:46:50.929Z,1.20
2023-01-09T16:49:20.362Z,1.20
2023-01-09T16:51:49.332Z,1.50
2023-01-09T16:54:17.804Z,1.40
2023-01-09T16:56:49.437Z,1.20
2023-01-09T16:59:24.514Z,1.53
2023-01-09T17:01:56.012Z,1.50
2023-01-09T17:04:24.759Z,1.60
2023-01-09T17:06:53.271Z,1.57
2023-01-09T17:09:25.881Z,2.47
2023-01-09T17:11:55.118Z,1.60
2023-01-09T17:14:25.475Z,1.50
2023-01-09T17:16:53.795Z,2.47
2023-01-09T17:19:24.525Z,1.90
2023-01-09T17:21:54.628Z,1.50
2023-01-09T17:24:48.340Z,1.80
2023-01-09T17:27:34.407Z,2.10
2023-01-09T17:30:17.587Z,1.80
2023-01-09T17:32:51.072Z,1.50
2023-01-09T17:35:21.571Z,1.40
2023-01-09T17:37:49.895Z,1.70
2023-01-09T17:40:20.332Z,1.70
2023-01-09T17:42:48.287Z,2.80
2023-01-09T17:45:17.842Z,2.03
2023-01-09T17:47:45.877Z,2.13
2023-01-09T17:50:19.493Z,1.80
2023-01-09T17:52:47.950Z,2.03
2023-01-09T17:55:30.228Z,1.70
2023-01-09T17:57:58.315Z,1.70
2023-01-09T18:00:29.763Z,1.70
2023-01-09T18:02:59.923Z,1.60
2023-01-09T18:05:28.572Z,4.07
2023-01-09T18:08:00.372Z,2.17
2023-01-09T18:10:32.653Z,3.33
2023-01-09T18:13:09.702Z,2.63
2023-01-09T18:15:42.423Z,2.97
2023-01-09T18:18:10.554Z,1.83
2023-01-09T18:20:40.358Z,1.40
2023-01-09T18:23:08.533Z,1.30
2023-01-09T18:25:39.641Z,1.40
2023-01-09T18:28:07.949Z,1.47
2023-01-09T18:30:36.369Z,1.53
2023-01-09T18:33:05.710Z,1.40
2023-01-09T18:35:34.615Z,1.77
2023-01-09T18:38:02.687Z,1.43
2023-01-09T18:40:30.731Z,1.37
2023-01-09T18:42:58.702Z,1.40
2023-01-09T18:45:26.935Z,2.03
2023-01-09T18:47:54.950Z,1.87
2023-01-09T18:50:24.296Z,2.30
2023-01-09T18:52:52.378Z,2.20
2023-01-09T18:55:21.815Z,2.60
2023-01-09T18:57:54.014Z,3.03
2023-01-09T19:00:22.349Z,3.70
2023-01-09T19:02:50.317Z,3.20
2023-01-09T19:05:20.937Z,3.63
2023-01-09T19:07:50.237Z,4.00
2023-01-09T19:10:20.200Z,4.33
2023-01-09T19:12:48.181Z,3.50
2023-01-09T19:15:16.074Z,4.10
2023-01-09T19:17:44.092Z,3.50
2023-01-09T19:20:13.151Z,2.90
2023-01-09T19:22:41.184Z,2.67
2023-01-09T19:25:13.658Z,2.33
2023-01-09T19:27:43.439Z,2.30
2023-01-09T19:30:13.904Z,2.33
2023-01-09T19:32:41.912Z,1.80
2023-01-09T19:35:10.461Z,2.63
2023-01-09T19:37:40.537Z,1.80
2023-01-09T19:40:13.906Z,2.43
2023-01-09T19:42:42.168Z,1.87
2023-01-09T19:45:11.078Z,1.70
2023-01-09T19:47:43.996Z,2.10
2023-01-09T19:50:13.031Z,2.57
2023-01-09T19:52:45.313Z,3.33
2023-01-09T19:55:17.962Z,2.47
2023-01-09T19:57:46.695Z,3.10
2023-01-09T20:00:16.155Z,3.03
2023-01-09T20:02:44.486Z,2.90
2023-01-09T20:05:12.950Z,2.60
2023-01-09T20:07:41.811Z,2.77
2023-01-09T20:10:11.207Z,2.40
2023-01-09T20:12:40.946Z,2.77
2023-01-09T20:15:14.972Z,2.37
2023-01-09T20:17:43.405Z,2.47
2023-01-09T20:20:12.490Z,2.10
2023-01-09T20:22:40.636Z,2.83
2023-01-09T20:25:10.451Z,2.93
2023-01-09T20:27:39.939Z,2.87
2023-01-09T20:30:11.944Z,2.97
2023-01-09T20:32:39.989Z,2.47
2023-01-09T20:35:08.963Z,2.90
2023-01-09T20:37:37.058Z,3.53
2023-01-09T20:40:05.970Z,2.70
2023-01-09T20:42:34.283Z,3.23
2023-01-09T20:45:03.776Z,2.90
2023-01-09T20:47:32.068Z,2.83
2023-01-09T20:50:00.196Z,2.90
2023-01-09T20:52:28.530Z,2.57
2023-01-09T20:54:56.623Z,2.40
2023-01-09T20:57:24.680Z,2.63
2023-01-09T20:59:52.699Z,2.30
2023-01-09T21:02:22.564Z,1.70
2023-01-09T21:04:50.976Z,4.00
2023-01-09T21:07:19.407Z,3.40
2023-01-09T21:09:47.765Z,2.60
2023-01-09T21:12:41.993Z,2.40
2023-01-09T21:15:15.661Z,2.00
2023-01-09T21:17:47.705Z,2.13
2023-01-09T21:20:19.938Z,4.97
2023-01-09T21:22:48.221Z,3.57
2023-01-09T21:25:31.612Z,3.97
2023-01-09T21:27:59.804Z,3.53
2023-01-09T21:30:27.763Z,3.17
2023-01-09T21:32:57.027Z,3.00
2023-01-09T21:35:25.086Z,3.47
2023-01-09T21:37:53.537Z,3.70
2023-01-09T21:40:21.487Z,5.03
2023-01-09T21:43:07.090Z,5.57
2023-01-09T21:45:52.716Z,5.37
2023-01-09T21:48:23.635Z,4.70
2023-01-09T21:50:51.719Z,4.50
2023-01-09T21:53:22.246Z,3.80
2023-01-09T21:55:50.309Z,4.47
2023-01-09T21:58:18.315Z,5.50
2023-01-09T22:00:46.338Z,6.00
2023-01-09T22:03:18.536Z,5.27
2023-01-09T22:05:47.840Z,4.37
2023-01-09T22:08:15.800Z,4.20
2023-01-09T22:10:43.735Z,4.97
2023-01-09T22:13:20.734Z,3.97
2023-01-09T22:15:49.402Z,4.83
2023-01-09T22:18:17.378Z,6.03
2023-01-09T22:20:47.460Z,6.60
2023-01-09T22:23:15.669Z,7.53
2023-01-09T22:25:48.517Z,9.67
2023-01-09T22:28:16.531Z,11.87
2023-01-09T22:30:45.809Z,6.13
2023-01-09T22:33:25.136Z,3.10
2023-01-09T22:35:54.616Z,4.17
2023-01-09T22:38:25.482Z,3.60
2023-01-09T22:40:53.431Z,3.67
2023-01-09T22:43:24.555Z,3.47
2023-01-09T22:45:54.231Z,4.40
2023-01-09T22:48:24.938Z,5.10
2023-01-09T22:50:54.195Z,4.97
2023-01-09T22:53:22.202Z,4.60
2023-01-09T22:55:56.400Z,3.70
2023-01-09T22:58:25.827Z,5.17
2023-01-09T23:00:56.147Z,4.43
2023-01-09T23:03:24.460Z,4.70
2023-01-09T23:06:02.517Z,4.40
2023-01-09T23:08:31.339Z,5.97
2023-01-09T23:11:00.083Z,4.13
2023-01-09T23:13:28.596Z,3.33
2023-01-09T23:15:58.637Z,3.30
2023-01-09T23:18:28.698Z,3.23
2023-01-09T23:20:58.449Z,3.50
2023-01-09T23:23:28.860Z,4.23
2023-01-09T23:25:58.859Z,3.97
2023-01-09T23:28:32.104Z,4.97
2023-01-09T23:31:01.928Z,3.90
2023-01-09T23:33:29.873Z,4.37
2023-01-09T23:35:58.527Z,4.03
2023-01-09T23:38:27.844Z,4.00
2023-01-09T23:40:58.501Z,4.03
2023-01-09T23:43:25.559Z,5.17
2023-01-09T23:45:53.989Z,4.90
2023-01-09T23:48:23.674Z,4.50
2023-01-09T23:50:52.975Z,6.20
2023-01-09T23:53:22.566Z,7.60
2023-01-09T23:55:55.091Z,6.00
2023-01-09T23:58:23.138Z,5.23
